createdAt,value
2019-02-10T00:01:49.025Z,70.60
2019-02-10T00:12:43.323Z,70.75
2019-02-10T00:15:00.675Z,70.56
2019-02-10T00:17:48.922Z,70.54
2019-02-10T00:20:16.783Z,70.57
2019-02-10T00:23:03.389Z,70.64
2019-02-10T00:25:31.191Z,70.55
2019-02-10T00:28:17.741Z,70.74
2019-02-10T00:31:16.179Z,70.74
2019-02-10T00:33:34.171Z,70.76
2019-02-10T00:36:01.928Z,70.82
2019-02-10T00:38:29.941Z,71.33
2019-02-10T00:40:57.618Z,71.33
2019-02-10T00:43:25.285Z,71.34
2019-02-10T00:46:11.991Z,71.31
2019-02-10T00:51:45.055Z,71.15
2019-02-10T00:57:17.968Z,71.03
2019-02-10T01:00:04.442Z,71.04
2019-02-10T01:02:50.955Z,71.04
2019-02-10T01:08:15.621Z,70.93
2019-02-10T01:10:43.479Z,70.92
2019-02-10T01:13:31.690Z,70.96
2019-02-10T01:15:59.371Z,70.85
2019-02-10T01:18:45.904Z,70.85
2019-02-10T01:21:13.812Z,70.91
2019-02-10T01:24:00.326Z,70.84
2019-02-10T01:26:46.873Z,71.21
2019-02-10T01:29:15.095Z,71.21
2019-02-10T01:31:42.956Z,70.79
2019-02-10T01:34:10.818Z,70.81
2019-02-10T01:36:57.272Z,70.82
2019-02-10T01:39:43.813Z,70.67
2019-02-10T01:42:30.372Z,70.48
2019-02-10T01:45:16.827Z,70.61
2019-02-10T01:48:03.362Z,70.61
2019-02-10T01:50:31.178Z,70.68
2019-02-10T01:53:17.699Z,70.53
2019-02-10T01:55:45.452Z,70.53
2019-02-10T01:58:13.319Z,70.68
2019-02-10T02:00:59.848Z,70.85
2019-02-10T02:03:46.302Z,71.45
2019-02-10T02:06:32.822Z,71.45
2019-02-10T02:12:07.426Z,71.49
2019-02-10T02:14:35.111Z,71.49
2019-02-10T02:17:22.362Z,71.85
2019-02-10T02:19:50.117Z,71.85
2019-02-10T02:25:12.121Z,72.76
2019-02-10T02:30:31.747Z,73.21
2019-02-10T02:32:59.653Z,73.21
2019-02-10T02:35:27.409Z,73.30
2019-02-10T02:38:14.210Z,73.47
2019-02-10T02:40:42.090Z,73.12
2019-02-10T02:43:09.836Z,73.12
2019-02-10T02:45:58.461Z,73.21
2019-02-10T02:48:27.888Z,73.18
2019-02-10T02:51:16.060Z,73.25
2019-02-10T02:53:43.816Z,73.25
2019-02-10T02:56:30.334Z,73.09
2019-02-10T03:02:03.262Z,73.12
2019-02-10T03:04:49.816Z,73.11
2019-02-10T03:07:36.271Z,73.31
2019-02-10T03:12:38.619Z,73.31
2019-02-10T03:15:25.110Z,73.36
2019-02-10T03:20:26.278Z,73.76
2019-02-10T03:23:12.951Z,74.03
2019-02-10T03:25:40.757Z,74.35
2019-02-10T03:28:08.623Z,74.71
2019-02-10T03:30:55.122Z,75.71
2019-02-10T03:36:15.086Z,76.16
2019-02-10T03:46:38.022Z,77.16
2019-02-10T03:49:24.897Z,77.16
2019-02-10T03:59:31.975Z,77.86
2019-02-10T04:01:59.820Z,77.86
2019-02-10T04:04:29.240Z,78.05
2019-02-10T04:06:58.731Z,78.05
2019-02-10T04:09:45.285Z,78.89
2019-02-10T04:12:31.757Z,78.91
2019-02-10T04:15:18.246Z,78.91
2019-02-10T04:18:04.789Z,79.15
2019-02-10T04:20:51.295Z,79.15
2019-02-10T04:26:24.500Z,79.52
2019-02-10T04:29:10.956Z,79.17
2019-02-10T04:31:57.739Z,79.60
2019-02-10T04:34:44.198Z,79.74
2019-02-10T04:37:12.055Z,79.74
2019-02-10T04:39:41.559Z,79.79
2019-02-10T04:42:28.031Z,79.83
2019-02-10T04:47:29.006Z,80.04
2019-02-10T04:50:15.759Z,80.58
2019-02-10T04:52:43.590Z,80.58
2019-02-10T04:55:30.040Z,80.03
2019-02-10T04:57:57.961Z,80.03
2019-02-10T05:03:31.234Z,80.43
2019-02-10T05:06:17.680Z,80.36
2019-02-10T05:08:45.531Z,80.36
2019-02-10T05:11:31.979Z,80.39
2019-02-10T05:13:59.798Z,80.47
2019-02-10T05:16:27.676Z,80.57
2019-02-10T05:21:46.972Z,80.49
2019-02-10T05:24:14.716Z,80.65
2019-02-10T05:27:01.267Z,80.44
2019-02-10T05:29:28.993Z,80.44
2019-02-10T05:35:02.003Z,80.28
2019-02-10T05:37:48.754Z,80.36
2019-02-10T05:40:18.219Z,80.36
2019-02-10T05:42:47.610Z,80.83
2019-02-10T05:45:15.481Z,80.87
2019-02-10T05:48:01.968Z,80.99
2019-02-10T05:50:41.908Z,81.21
2019-02-10T05:55:32.744Z,81.80
2019-02-10T05:58:19.493Z,81.11
2019-02-10T06:00:47.314Z,81.11
2019-02-10T06:03:15.078Z,81.61
2019-02-10T06:05:42.946Z,81.70
2019-02-10T06:08:29.430Z,81.76
2019-02-10T06:10:57.221Z,81.76
2019-02-10T06:13:24.942Z,82.04
2019-02-10T06:15:54.391Z,82.04
2019-02-10T06:18:22.253Z,82.08
2019-02-10T06:21:09.058Z,81.69
2019-02-10T06:23:56.056Z,81.46
2019-02-10T06:26:23.842Z,81.74
2019-02-10T06:29:10.374Z,81.74
2019-02-10T06:31:38.105Z,81.83
2019-02-10T06:34:25.337Z,81.60
2019-02-10T06:36:53.303Z,81.60
2019-02-10T06:39:21.055Z,81.83
2019-02-10T06:42:07.603Z,81.99
2019-02-10T06:44:54.140Z,81.38
2019-02-10T06:47:41.016Z,81.38
2019-02-10T06:53:00.827Z,81.83
2019-02-10T06:55:47.302Z,81.59
2019-02-10T06:58:15.153Z,81.59
2019-02-10T07:01:01.612Z,82.16
2019-02-10T07:03:48.123Z,82.12
2019-02-10T07:08:51.052Z,82.26
2019-02-10T07:11:19.326Z,82.12
2019-02-10T07:14:06.090Z,81.67
2019-02-10T07:16:52.597Z,81.79
2019-02-10T07:19:39.373Z,82.35
2019-02-10T07:22:26.334Z,82.41
2019-02-10T07:25:12.784Z,82.41
2019-02-10T07:27:40.849Z,82.03
2019-02-10T07:30:28.963Z,82.03
2019-02-10T07:33:15.468Z,82.09
2019-02-10T07:36:01.923Z,81.96
2019-02-10T07:38:29.759Z,81.87
2019-02-10T07:41:16.284Z,81.96
2019-02-10T07:43:44.029Z,81.96
2019-02-10T07:46:30.839Z,82.13
2019-02-10T07:48:58.707Z,81.88
2019-02-10T07:51:26.468Z,81.88
2019-02-10T07:54:24.765Z,82.12
2019-02-10T07:56:42.476Z,82.12
2019-02-10T08:01:56.734Z,82.16
2019-02-10T08:04:24.508Z,82.16
2019-02-10T08:07:11.006Z,81.76
2019-02-10T08:09:57.536Z,81.77
2019-02-10T08:12:44.010Z,81.48
2019-02-10T08:15:11.814Z,81.48
2019-02-10T08:17:39.544Z,81.83
2019-02-10T08:20:38.443Z,81.84
2019-02-10T08:22:55.377Z,81.86
2019-02-10T08:25:23.217Z,81.90
2019-02-10T08:28:09.718Z,81.92
2019-02-10T08:30:37.587Z,81.90
2019-02-10T08:33:05.348Z,81.80
2019-02-10T08:35:51.799Z,81.80
2019-02-10T08:38:38.318Z,81.66
2019-02-10T08:41:24.823Z,81.66
2019-02-10T08:46:57.816Z,80.95
2019-02-10T08:49:44.329Z,80.82
2019-02-10T08:52:30.803Z,80.82
2019-02-10T08:55:17.360Z,80.55
2019-02-10T08:58:16.251Z,80.55
2019-02-10T09:03:26.308Z,80.16
2019-02-10T09:05:54.100Z,80.16
2019-02-10T09:08:40.605Z,80.02
2019-02-10T09:11:08.322Z,79.93
2019-02-10T09:14:07.008Z,79.75
2019-02-10T09:16:24.468Z,79.62
2019-02-10T09:19:10.952Z,79.44
2019-02-10T09:21:38.850Z,79.32
2019-02-10T09:24:25.371Z,79.18
2019-02-10T09:27:11.919Z,79.02
2019-02-10T09:29:58.454Z,79.02
2019-02-10T09:32:26.141Z,78.94
2019-02-10T09:35:24.631Z,79.08
2019-02-10T09:37:42.234Z,79.23
2019-02-10T09:40:29.208Z,79.93
2019-02-10T09:43:15.714Z,80.31
2019-02-10T09:46:02.158Z,80.31
2019-02-10T09:48:29.923Z,80.11
2019-02-10T09:51:16.384Z,80.24
2019-02-10T09:53:44.121Z,80.55
2019-02-10T09:56:30.559Z,80.37
2019-02-10T10:01:51.258Z,81.15
2019-02-10T10:04:21.318Z,81.25
2019-02-10T10:07:07.827Z,81.25
2019-02-10T10:09:49.407Z,81.48
2019-02-10T10:12:07.425Z,81.65
2019-02-10T10:14:53.925Z,81.81
2019-02-10T10:17:23.761Z,81.51
2019-02-10T10:20:10.268Z,82.08
2019-02-10T10:22:40.009Z,82.08
2019-02-10T10:25:08.259Z,82.22
2019-02-10T10:27:36.245Z,82.46
2019-02-10T10:30:04.325Z,82.46
2019-02-10T10:32:32.038Z,82.32
2019-02-10T10:35:18.578Z,82.34
2019-02-10T10:37:46.313Z,82.31
2019-02-10T10:40:14.407Z,82.31
2019-02-10T10:43:00.901Z,82.50
2019-02-10T10:45:48.441Z,82.50
2019-02-10T10:48:16.195Z,82.36
2019-02-10T10:50:44.366Z,82.43
2019-02-10T10:53:30.845Z,82.56
2019-02-10T10:56:17.382Z,83.13
2019-02-10T10:58:45.100Z,83.13
2019-02-10T11:01:31.634Z,82.86
2019-02-10T11:04:30.033Z,82.90
2019-02-10T11:07:06.273Z,83.04
2019-02-10T11:12:39.824Z,82.91
2019-02-10T11:15:09.301Z,82.89
2019-02-10T11:18:10.358Z,82.81
2019-02-10T11:20:25.203Z,82.81
2019-02-10T11:23:11.933Z,82.74
2019-02-10T11:25:39.783Z,82.74
2019-02-10T11:31:00.622Z,82.78
2019-02-10T11:33:28.463Z,82.79
2019-02-10T11:35:56.432Z,82.78
2019-02-10T11:38:24.322Z,82.81
2019-02-10T11:41:08.039Z,82.79
2019-02-10T11:46:31.844Z,82.31
2019-02-10T11:51:54.594Z,82.21
2019-02-10T11:54:44.390Z,82.07
2019-02-10T12:00:03.998Z,81.91
2019-02-10T12:02:50.510Z,82.26
2019-02-10T12:05:36.986Z,82.26
2019-02-10T12:08:04.846Z,81.87
2019-02-10T12:10:51.328Z,81.77
2019-02-10T12:13:40.016Z,82.05
2019-02-10T12:16:25.955Z,82.05
2019-02-10T12:18:53.761Z,81.74
2019-02-10T12:21:40.213Z,81.82
2019-02-10T12:24:29.332Z,82.22
2019-02-10T12:27:15.803Z,81.99
2019-02-10T12:32:40.413Z,82.05
2019-02-10T12:35:08.231Z,82.07
2019-02-10T12:37:57.130Z,81.98
2019-02-10T12:40:43.644Z,81.98
2019-02-10T12:43:31.152Z,81.82
2019-02-10T12:45:58.972Z,81.82
2019-02-10T12:48:45.407Z,81.40
2019-02-10T12:51:13.210Z,81.40
2019-02-10T12:53:43.418Z,81.74
2019-02-10T12:56:29.931Z,81.82
2019-02-10T12:59:18.921Z,81.61
2019-02-10T13:02:05.423Z,81.61
2019-02-10T13:07:24.450Z,81.93
2019-02-10T13:09:57.342Z,82.09
2019-02-10T13:13:01.094Z,82.09
2019-02-10T13:18:15.053Z,82.12
2019-02-10T13:20:42.909Z,82.69
2019-02-10T13:23:29.400Z,82.69
2019-02-10T13:25:57.235Z,82.51
2019-02-10T13:31:30.580Z,82.64
2019-02-10T13:37:17.589Z,82.73
2019-02-10T13:42:43.263Z,82.72
2019-02-10T13:45:11.138Z,82.71
2019-02-10T13:47:39.211Z,82.71
2019-02-10T13:50:06.922Z,82.73
2019-02-10T13:52:34.690Z,82.71
2019-02-10T13:55:21.232Z,82.68
2019-02-10T13:58:16.673Z,82.66
2019-02-10T14:01:06.998Z,82.49
2019-02-10T14:03:34.809Z,82.38
2019-02-10T14:06:21.273Z,82.33
2019-02-10T14:11:40.904Z,81.76
2019-02-10T14:14:08.673Z,81.76
2019-02-10T14:16:55.892Z,81.69
2019-02-10T14:19:23.643Z,81.69
2019-02-10T14:21:51.860Z,82.05
2019-02-10T14:24:22.379Z,82.05
2019-02-10T14:26:54.394Z,81.85
2019-02-10T14:29:23.955Z,81.88
2019-02-10T14:31:53.913Z,81.90
2019-02-10T14:34:21.241Z,81.91
2019-02-10T14:36:52.086Z,81.93
2019-02-10T14:39:22.794Z,81.92
2019-02-10T14:41:50.539Z,82.34
2019-02-10T14:44:18.189Z,82.34
2019-02-10T14:46:46.117Z,81.83
2019-02-10T14:49:14.238Z,81.83
2019-02-10T14:51:44.046Z,81.85
2019-02-10T14:54:12.311Z,81.81
2019-02-10T14:56:40.074Z,81.72
2019-02-10T14:59:08.289Z,81.67
2019-02-10T15:01:39.052Z,81.53
2019-02-10T15:04:07.961Z,81.01
2019-02-10T15:06:39.071Z,81.40
2019-02-10T15:09:09.200Z,81.40
2019-02-10T15:11:37.192Z,81.45
2019-02-10T15:14:07.719Z,81.44
2019-02-10T15:16:35.737Z,81.77
2019-02-10T15:19:03.451Z,81.48
2019-02-10T15:21:33.941Z,81.48
2019-02-10T15:24:05.866Z,81.98
2019-02-10T15:26:33.605Z,81.55
2019-02-10T15:29:12.257Z,81.73
2019-02-10T15:31:50.203Z,81.73
2019-02-10T15:34:18.262Z,82.20
2019-02-10T15:36:47.339Z,82.20
2019-02-10T15:39:17.965Z,82.35
2019-02-10T15:41:45.713Z,82.50
2019-02-10T15:44:19.620Z,82.59
2019-02-10T15:46:48.256Z,82.65
2019-02-10T15:49:17.563Z,83.11
2019-02-10T15:51:47.744Z,83.11
2019-02-10T15:54:21.625Z,83.24
2019-02-10T15:56:44.688Z,83.24
2019-02-10T15:59:12.737Z,82.91
2019-02-10T16:01:40.524Z,83.12
2019-02-10T16:04:12.757Z,83.12
2019-02-10T16:06:43.840Z,83.12
2019-02-10T16:09:13.423Z,83.21
2019-02-10T16:11:42.734Z,83.19
2019-02-10T16:14:10.716Z,83.19
2019-02-10T16:16:43.420Z,83.32
2019-02-10T16:19:20.668Z,83.33
2019-02-10T16:21:50.885Z,83.23
2019-02-10T16:24:21.330Z,83.25
2019-02-10T16:26:49.440Z,83.25
2019-02-10T16:29:19.436Z,83.27
2019-02-10T16:31:51.629Z,83.29
2019-02-10T16:34:19.536Z,83.28
2019-02-10T16:36:49.107Z,83.25
2019-02-10T16:39:18.448Z,83.24
2019-02-10T16:41:48.203Z,83.39
2019-02-10T16:44:19.182Z,83.27
2019-02-10T16:46:49.611Z,83.56
2019-02-10T16:49:23.157Z,82.87
2019-02-10T16:51:50.866Z,83.07
2019-02-10T16:54:18.664Z,83.07
2019-02-10T16:56:46.636Z,83.38
2019-02-10T16:59:17.150Z,83.38
2019-02-10T17:01:47.575Z,83.30
2019-02-10T17:04:21.197Z,83.32
2019-02-10T17:06:50.030Z,83.36
2019-02-10T17:09:19.127Z,83.42
2019-02-10T17:11:54.088Z,83.27
2019-02-10T17:14:28.303Z,84.09
2019-02-10T17:16:56.345Z,83.86
2019-02-10T17:19:24.406Z,83.86
2019-02-10T17:21:56.159Z,83.75
2019-02-10T17:24:26.822Z,83.62
2019-02-10T17:26:55.633Z,83.62
2019-02-10T17:29:24.413Z,83.66
2019-02-10T17:31:52.364Z,83.66
2019-02-10T17:34:22.008Z,83.64
2019-02-10T17:36:50.076Z,83.64
2019-02-10T17:39:24.239Z,84.00
2019-02-10T17:41:54.390Z,84.01
2019-02-10T17:44:26.220Z,83.67
2019-02-10T17:46:51.786Z,83.67
2019-02-10T17:49:21.507Z,84.01
2019-02-10T17:51:49.179Z,84.05
2019-02-10T17:54:21.200Z,84.07
2019-02-10T17:56:46.470Z,84.33
2019-02-10T17:59:18.604Z,84.33
2019-02-10T18:01:43.855Z,84.37
2019-02-10T18:04:13.457Z,84.37
2019-02-10T18:06:41.186Z,84.23
2019-02-10T18:09:09.238Z,84.28
2019-02-10T18:11:41.309Z,84.30
2019-02-10T18:14:23.621Z,84.31
2019-02-10T18:17:08.929Z,84.21
2019-02-10T18:20:01.687Z,84.35
2019-02-10T18:22:57.261Z,84.35
2019-02-10T18:25:50.201Z,84.47
2019-02-10T18:28:32.637Z,84.52
2019-02-10T18:31:22.214Z,84.61
2019-02-10T18:34:09.746Z,85.03
2019-02-10T18:37:00.280Z,85.03
2019-02-10T18:40:00.593Z,84.66
2019-02-10T18:43:00.999Z,84.64
2019-02-10T18:45:35.317Z,84.64
2019-02-10T18:48:23.400Z,84.63
2019-02-10T18:51:00.260Z,84.55
2019-02-10T18:53:52.774Z,84.55
2019-02-10T18:56:45.358Z,85.01
2019-02-10T18:59:48.102Z,85.01
2019-02-10T19:02:27.477Z,84.81
2019-02-10T19:05:06.435Z,84.81
2019-02-10T19:08:02.400Z,85.13
2019-02-10T19:10:49.625Z,84.75
2019-02-10T19:13:45.731Z,84.75
2019-02-10T19:16:25.568Z,85.37
2019-02-10T19:21:40.950Z,84.80
2019-02-10T19:24:27.470Z,84.90
2019-02-10T19:27:15.885Z,85.29
2019-02-10T19:30:02.337Z,85.29
2019-02-10T19:32:51.567Z,85.36
2019-02-10T19:35:39.748Z,85.36
2019-02-10T19:38:30.465Z,85.31
2019-02-10T19:41:32.351Z,85.31
2019-02-10T19:44:05.181Z,84.87
2019-02-10T19:46:55.966Z,84.84
2019-02-10T19:49:42.466Z,84.81
2019-02-10T19:52:31.627Z,84.81
2019-02-10T19:58:23.292Z,84.50
2019-02-10T20:01:09.832Z,84.50
2019-02-10T20:04:08.682Z,84.96
2019-02-10T20:06:44.460Z,84.66
2019-02-10T20:09:30.952Z,84.66
2019-02-10T20:12:17.453Z,85.11
2019-02-10T20:15:04.414Z,85.20
2019-02-10T20:17:53.572Z,85.33
2019-02-10T20:20:40.529Z,85.38
2019-02-10T20:23:27.923Z,85.38
2019-02-10T20:26:14.458Z,85.54
2019-02-10T20:32:17.930Z,85.90
2019-02-10T20:34:54.261Z,85.75
2019-02-10T20:37:42.612Z,85.88
2019-02-10T20:40:28.949Z,86.28
2019-02-10T20:46:20.594Z,86.03
2019-02-10T20:49:07.128Z,86.53
2019-02-10T20:51:53.644Z,86.53
2019-02-10T20:54:40.173Z,86.18
2019-02-10T20:57:26.719Z,85.79
2019-02-10T21:00:13.178Z,85.79
2019-02-10T21:02:59.701Z,85.64
2019-02-10T21:05:46.213Z,85.80
2019-02-10T21:08:32.661Z,85.80
2019-02-10T21:11:19.170Z,86.05
2019-02-10T21:14:05.678Z,85.99
2019-02-10T21:16:52.134Z,85.98
2019-02-10T21:22:35.207Z,85.94
2019-02-10T21:25:23.936Z,85.86
2019-02-10T21:28:10.444Z,85.86
2019-02-10T21:30:57.297Z,85.61
2019-02-10T21:33:43.778Z,85.61
2019-02-10T21:36:30.320Z,85.55
2019-02-10T21:39:26.212Z,85.65
2019-02-10T21:45:04.116Z,85.98
2019-02-10T21:47:50.619Z,86.12
2019-02-10T21:50:37.101Z,86.29
2019-02-10T21:53:04.894Z,86.38
2019-02-10T21:55:51.388Z,86.35
2019-02-10T21:58:19.154Z,86.26
2019-02-10T22:01:08.165Z,86.84
2019-02-10T22:03:54.693Z,86.73
2019-02-10T22:06:41.149Z,86.68
2019-02-10T22:09:39.124Z,86.68
2019-02-10T22:14:33.134Z,86.76
2019-02-10T22:17:15.801Z,86.28
2019-02-10T22:19:33.743Z,86.28
2019-02-10T22:22:20.249Z,86.26
2019-02-10T22:25:06.728Z,86.23
2019-02-10T22:27:53.235Z,86.23
2019-02-10T22:30:23.184Z,86.40
2019-02-10T22:32:54.592Z,86.48
2019-02-10T22:35:30.865Z,86.12
2019-02-10T22:37:58.758Z,86.12
2019-02-10T22:40:46.843Z,86.50
2019-02-10T22:43:33.819Z,86.29
2019-02-10T22:46:01.400Z,86.29
2019-02-10T22:49:00.020Z,86.46
2019-02-10T22:51:17.370Z,86.46
2019-02-10T22:56:50.388Z,87.07
2019-02-10T22:59:18.179Z,87.07
2019-02-10T23:02:04.608Z,87.08
2019-02-10T23:04:51.046Z,87.05
2019-02-10T23:10:10.683Z,87.05
2019-02-10T23:12:57.394Z,87.33
2019-02-10T23:15:25.337Z,87.17
2019-02-10T23:17:53.196Z,87.17
2019-02-10T23:20:20.885Z,87.03
2019-02-10T23:23:07.318Z,86.92
2019-02-10T23:25:53.786Z,86.92
2019-02-10T23:30:55.621Z,87.18
2019-02-10T23:36:28.568Z,86.92
2019-02-10T23:44:35.541Z,87.11
2019-02-10T23:47:34.047Z,87.34
2019-02-10T23:50:10.159Z,87.04
2019-02-10T23:53:08.822Z,87.38
2019-02-10T23:58:33.417Z,86.70
